PLT2829 SBFN-SBGR
Flight info
| Callsign | PLT2829 |
|---|---|
| Flight time | 3h 34m |
| Altitude | 36000 |
| Route | TOMEK DCT AMBET DCT MCE DCT RELOP UZ21 VUNOX |
| Aircraft | A320/M-SDE3FGHIRWY/LB1 |
Departure
| Time | 2026-05-04 17:23 |
|---|---|
| Airport | Fernando de Noronha Airport (SBFN) |
Arrival
| Time | 2026-05-04 20:58 |
|---|---|
| Airport | São Paulo/Guarulhos–Governor André Franco Montoro International Airport (SBGR) |
| Time | Latitude | Longitude | Altitude | Speed | Heading |
|---|---|---|---|---|---|
| 2026-05-04 16:55 | -3.85585 | -32.42769 | 173 ft | 0 kts | 179° |
| 2026-05-04 17:14 | -3.85567 | -32.42770 | 173 ft | 3 kts | 179° |
| 2026-05-04 17:15 | -3.85550 | -32.42769 | 173 ft | 2 kts | 189° |
| 2026-05-04 17:15 | -3.85549 | -32.42768 | 173 ft | 0 kts | 189° |
| 2026-05-04 17:18 | -3.85555 | -32.42771 | 173 ft | 1 kts | 204° |
| 2026-05-04 17:19 | -3.85557 | -32.42803 | 173 ft | 4 kts | 275° |
| 2026-05-04 17:19 | -3.85551 | -32.42882 | 173 ft | 7 kts | 274° |
| 2026-05-04 17:20 | -3.85473 | -32.42962 | 174 ft | 10 kts | 329° |
| 2026-05-04 17:20 | -3.85420 | -32.42998 | 177 ft | 3 kts | 325° |
| 2026-05-04 17:20 | -3.85406 | -32.43008 | 177 ft | 3 kts | 325° |
| 2026-05-04 17:21 | -3.85390 | -32.43046 | 178 ft | 3 kts | 265° |
| 2026-05-04 17:21 | -3.85406 | -32.43096 | 179 ft | 4 kts | 239° |
| 2026-05-04 17:22 | -3.85398 | -32.43127 | 180 ft | 5 kts | 326° |
| 2026-05-04 17:22 | -3.85382 | -32.43126 | 179 ft | 3 kts | 33° |
| 2026-05-04 17:23 | -3.85387 | -32.43073 | 179 ft | 31 kts | 96° |
| 2026-05-04 17:23 | -3.85426 | -32.42591 | 175 ft | 103 kts | 94° |
| 2026-05-04 17:23 | -3.85593 | -32.40706 | 900 ft | 142 kts | 99° |
| 2026-05-04 17:24 | -3.85736 | -32.39741 | 1458 ft | 147 kts | 112° |
| 2026-05-04 17:24 | -3.88821 | -32.37966 | 2237 ft | 220 kts | 181° |
| 2026-05-04 17:25 | -3.90427 | -32.38141 | 2576 ft | 244 kts | 185° |
| 2026-05-04 17:25 | -3.93944 | -32.38742 | 3879 ft | 265 kts | 196° |
| 2026-05-04 17:26 | -3.97140 | -32.40736 | 5482 ft | 276 kts | 212° |
| 2026-05-04 17:26 | -4.01935 | -32.44154 | 7590 ft | 288 kts | 212° |
| 2026-05-04 17:27 | -4.05254 | -32.46523 | 8917 ft | 297 kts | 213° |
| 2026-05-04 17:27 | -4.08682 | -32.48957 | 10176 ft | 309 kts | 213° |
| 2026-05-04 17:28 | -4.12411 | -32.51598 | 10511 ft | 348 kts | 213° |
| 2026-05-04 17:29 | -4.17915 | -32.56529 | 12122 ft | 363 kts | 231° |
| 2026-05-04 17:29 | -4.22601 | -32.62616 | 13798 ft | 372 kts | 231° |
| 2026-05-04 17:30 | -4.27412 | -32.68840 | 15267 ft | 381 kts | 231° |
| 2026-05-04 17:31 | -4.30733 | -32.73021 | 16232 ft | 385 kts | 224° |
| 2026-05-04 17:31 | -4.37801 | -32.76657 | 17626 ft | 389 kts | 199° |
| 2026-05-04 17:32 | -4.42889 | -32.78611 | 18526 ft | 394 kts | 199° |
| 2026-05-04 17:33 | -4.50649 | -32.81600 | 19777 ft | 402 kts | 199° |
| 2026-05-04 17:33 | -4.53265 | -32.82614 | 20183 ft | 405 kts | 199° |
| 2026-05-04 17:34 | -4.61139 | -32.85878 | 21436 ft | 412 kts | 206° |
| 2026-05-04 17:34 | -4.63700 | -32.87167 | 21897 ft | 413 kts | 205° |
| 2026-05-04 17:35 | -4.71456 | -32.91049 | 23161 ft | 418 kts | 205° |
| 2026-05-04 17:35 | -4.76693 | -32.93674 | 23860 ft | 422 kts | 206° |
| 2026-05-04 17:35 | -4.79321 | -32.94992 | 24199 ft | 423 kts | 205° |
| 2026-05-04 17:36 | -4.81963 | -32.96315 | 24494 ft | 425 kts | 205° |
| 2026-05-04 17:36 | -4.84613 | -32.97642 | 24819 ft | 426 kts | 206° |
| 2026-05-04 17:36 | -4.87266 | -32.98974 | 25150 ft | 427 kts | 206° |
| 2026-05-04 17:36 | -4.89922 | -33.00309 | 25480 ft | 428 kts | 206° |
| 2026-05-04 17:37 | -4.92587 | -33.01646 | 25809 ft | 428 kts | 206° |
| 2026-05-04 17:37 | -4.95259 | -33.02986 | 26123 ft | 429 kts | 205° |
| 2026-05-04 17:37 | -4.97929 | -33.04326 | 26448 ft | 430 kts | 206° |
| 2026-05-04 17:37 | -5.00608 | -33.05667 | 26760 ft | 430 kts | 206° |
| 2026-05-04 17:38 | -5.03291 | -33.07012 | 27039 ft | 432 kts | 206° |
| 2026-05-04 17:38 | -5.05942 | -33.08343 | 27351 ft | 432 kts | 206° |
| 2026-05-04 17:38 | -5.08632 | -33.09697 | 27657 ft | 433 kts | 206° |
| 2026-05-04 17:38 | -5.11335 | -33.11055 | 27917 ft | 435 kts | 206° |
| 2026-05-04 17:39 | -5.16750 | -33.13773 | 28547 ft | 435 kts | 207° |
| 2026-05-04 17:39 | -5.19462 | -33.15135 | 28787 ft | 437 kts | 207° |
| 2026-05-04 17:39 | -5.22189 | -33.16502 | 29066 ft | 438 kts | 207° |
| 2026-05-04 17:40 | -5.24919 | -33.17873 | 29400 ft | 439 kts | 207° |
| 2026-05-04 17:40 | -5.27652 | -33.19247 | 29642 ft | 441 kts | 207° |
| 2026-05-04 17:40 | -5.30404 | -33.20632 | 29885 ft | 443 kts | 207° |
| 2026-05-04 17:40 | -5.33158 | -33.22015 | 30201 ft | 442 kts | 207° |
| 2026-05-04 17:41 | -5.35868 | -33.23379 | 30533 ft | 441 kts | 207° |
| 2026-05-04 17:41 | -5.38606 | -33.24758 | 30838 ft | 440 kts | 207° |
| 2026-05-04 17:41 | -5.41339 | -33.26130 | 31187 ft | 439 kts | 207° |
| 2026-05-04 17:41 | -5.44068 | -33.27497 | 31521 ft | 438 kts | 207° |
| 2026-05-04 17:42 | -5.46790 | -33.28859 | 31850 ft | 437 kts | 207° |
| 2026-05-04 17:42 | -5.49506 | -33.30221 | 32196 ft | 436 kts | 208° |
| 2026-05-04 17:42 | -5.52216 | -33.31584 | 32543 ft | 435 kts | 208° |
| 2026-05-04 17:42 | -5.54917 | -33.32942 | 32897 ft | 434 kts | 208° |
| 2026-05-04 17:43 | -5.57614 | -33.34299 | 33253 ft | 433 kts | 208° |
| 2026-05-04 17:43 | -5.60300 | -33.35650 | 33590 ft | 432 kts | 208° |
| 2026-05-04 17:43 | -5.62983 | -33.36998 | 33883 ft | 431 kts | 208° |
| 2026-05-04 17:43 | -5.65667 | -33.38344 | 33937 ft | 431 kts | 208° |
| 2026-05-04 17:44 | -5.70988 | -33.41021 | 33939 ft | 431 kts | 208° |
| 2026-05-04 17:44 | -5.76346 | -33.43722 | 33940 ft | 432 kts | 208° |
| 2026-05-04 17:45 | -5.81814 | -33.46471 | 33942 ft | 443 kts | 208° |
| 2026-05-04 17:45 | -5.87343 | -33.49256 | 33945 ft | 445 kts | 208° |
| 2026-05-04 17:46 | -5.92887 | -33.52048 | 33942 ft | 446 kts | 208° |
| 2026-05-04 17:46 | -5.98433 | -33.54843 | 33942 ft | 446 kts | 208° |
| 2026-05-04 17:47 | -6.03987 | -33.57632 | 33946 ft | 446 kts | 208° |
| 2026-05-04 17:47 | -6.09545 | -33.60426 | 33955 ft | 446 kts | 208° |
| 2026-05-04 17:48 | -6.15065 | -33.63208 | 33959 ft | 447 kts | 208° |
| 2026-05-04 17:48 | -6.20624 | -33.66011 | 33961 ft | 447 kts | 208° |
| 2026-05-04 17:49 | -6.26177 | -33.68815 | 33965 ft | 447 kts | 208° |
| 2026-05-04 17:49 | -6.31735 | -33.71614 | 33964 ft | 447 kts | 208° |
| 2026-05-04 17:50 | -6.37297 | -33.74420 | 33965 ft | 447 kts | 209° |
| 2026-05-04 17:50 | -6.42870 | -33.77233 | 33964 ft | 448 kts | 209° |
| 2026-05-04 17:51 | -6.48440 | -33.80043 | 33965 ft | 448 kts | 208° |
| 2026-05-04 17:51 | -6.53976 | -33.82835 | 33965 ft | 448 kts | 208° |
| 2026-05-04 17:52 | -6.59548 | -33.85641 | 33966 ft | 448 kts | 208° |
| 2026-05-04 17:52 | -6.65134 | -33.88456 | 33967 ft | 448 kts | 209° |
| 2026-05-04 17:53 | -6.70700 | -33.91275 | 33970 ft | 448 kts | 209° |
| 2026-05-04 17:53 | -6.76271 | -33.94097 | 33970 ft | 448 kts | 209° |
| 2026-05-04 17:54 | -6.81844 | -33.96910 | 33967 ft | 448 kts | 208° |
| 2026-05-04 17:54 | -6.87422 | -33.99723 | 33969 ft | 448 kts | 209° |
| 2026-05-04 17:55 | -6.92956 | -34.02525 | 33974 ft | 448 kts | 209° |
| 2026-05-04 17:55 | -6.98531 | -34.05340 | 33977 ft | 448 kts | 209° |
| 2026-05-04 17:56 | -7.04112 | -34.08160 | 33973 ft | 449 kts | 209° |
| 2026-05-04 17:56 | -7.09689 | -34.10984 | 33972 ft | 449 kts | 209° |
| 2026-05-04 17:57 | -7.15269 | -34.13802 | 33972 ft | 449 kts | 209° |
| 2026-05-04 17:57 | -7.20858 | -34.16622 | 33975 ft | 449 kts | 209° |
| 2026-05-04 17:58 | -7.26435 | -34.19448 | 33977 ft | 449 kts | 209° |
| 2026-05-04 17:58 | -7.32015 | -34.22277 | 33978 ft | 449 kts | 209° |
| 2026-05-04 17:59 | -7.37601 | -34.25112 | 33977 ft | 449 kts | 209° |
| 2026-05-04 18:00 | -7.45945 | -34.29342 | 33977 ft | 450 kts | 209° |
| 2026-05-04 18:00 | -7.51572 | -34.32197 | 33979 ft | 450 kts | 209° |
| 2026-05-04 18:01 | -7.57152 | -34.35032 | 33985 ft | 450 kts | 209° |
| 2026-05-04 18:01 | -7.62706 | -34.37854 | 33983 ft | 450 kts | 209° |
| 2026-05-04 18:02 | -7.71084 | -34.42112 | 33982 ft | 450 kts | 209° |
| 2026-05-04 18:02 | -7.76586 | -34.45086 | 33982 ft | 447 kts | 217° |
| 2026-05-04 18:03 | -7.81553 | -34.48836 | 33984 ft | 446 kts | 219° |
| 2026-05-04 18:03 | -7.86496 | -34.52604 | 33988 ft | 445 kts | 220° |
| 2026-05-04 18:04 | -7.91435 | -34.56365 | 33991 ft | 445 kts | 220° |
| 2026-05-04 18:05 | -7.98839 | -34.62019 | 33989 ft | 444 kts | 220° |
| 2026-05-04 18:05 | -8.03768 | -34.65788 | 33990 ft | 444 kts | 220° |
| 2026-05-04 18:06 | -8.11168 | -34.71433 | 33984 ft | 444 kts | 219° |
| 2026-05-04 18:06 | -8.16100 | -34.75191 | 33976 ft | 445 kts | 219° |
| 2026-05-04 18:07 | -8.21038 | -34.78954 | 33972 ft | 445 kts | 219° |
| 2026-05-04 18:07 | -8.25975 | -34.82729 | 33973 ft | 445 kts | 219° |
| 2026-05-04 18:08 | -8.30879 | -34.86481 | 33975 ft | 445 kts | 219° |
| 2026-05-04 18:08 | -8.35816 | -34.90251 | 33981 ft | 445 kts | 219° |
| 2026-05-04 18:09 | -8.45694 | -34.97813 | 33994 ft | 445 kts | 219° |
| 2026-05-04 18:10 | -8.50633 | -35.01593 | 33996 ft | 445 kts | 219° |
| 2026-05-04 18:10 | -8.55574 | -35.05380 | 33998 ft | 445 kts | 219° |
| 2026-05-04 18:11 | -8.60507 | -35.09157 | 33997 ft | 445 kts | 219° |
| 2026-05-04 18:11 | -8.65447 | -35.12937 | 33999 ft | 445 kts | 219° |
| 2026-05-04 18:12 | -8.70383 | -35.16720 | 34004 ft | 445 kts | 219° |
| 2026-05-04 18:12 | -8.75317 | -35.20504 | 34003 ft | 445 kts | 218° |
| 2026-05-04 18:13 | -8.79413 | -35.23645 | 34004 ft | 445 kts | 218° |
| 2026-05-04 18:14 | -8.86816 | -35.29323 | 34000 ft | 445 kts | 218° |
| 2026-05-04 18:14 | -8.91748 | -35.33110 | 34003 ft | 445 kts | 218° |
| 2026-05-04 18:15 | -9.01611 | -35.40685 | 34006 ft | 445 kts | 218° |
| 2026-05-04 18:16 | -9.06515 | -35.44452 | 34004 ft | 445 kts | 218° |
| 2026-05-04 18:16 | -9.11448 | -35.48247 | 34004 ft | 445 kts | 218° |
| 2026-05-04 18:17 | -9.18851 | -35.53938 | 34006 ft | 445 kts | 218° |
| 2026-05-04 18:18 | -9.26252 | -35.59629 | 34009 ft | 446 kts | 218° |
| 2026-05-04 18:18 | -9.31188 | -35.63434 | 34012 ft | 446 kts | 218° |
| 2026-05-04 18:19 | -9.38610 | -35.69140 | 34014 ft | 446 kts | 218° |
| 2026-05-04 18:19 | -9.43521 | -35.72925 | 34017 ft | 446 kts | 218° |
| 2026-05-04 18:20 | -9.48463 | -35.76737 | 34017 ft | 446 kts | 218° |
| 2026-05-04 18:20 | -9.53331 | -35.80639 | 34017 ft | 446 kts | 221° |
| 2026-05-04 18:21 | -9.57948 | -35.84842 | 34017 ft | 446 kts | 224° |
| 2026-05-04 18:21 | -9.62486 | -35.89131 | 34015 ft | 446 kts | 223° |
| 2026-05-04 18:22 | -9.67064 | -35.93371 | 34013 ft | 446 kts | 223° |
| 2026-05-04 18:22 | -9.71692 | -35.97573 | 34147 ft | 448 kts | 222° |
| 2026-05-04 18:23 | -9.74013 | -35.99673 | 34443 ft | 447 kts | 223° |
| 2026-05-04 18:23 | -9.76326 | -36.01774 | 34753 ft | 445 kts | 223° |
| 2026-05-04 18:23 | -9.78627 | -36.03870 | 35048 ft | 444 kts | 223° |
| 2026-05-04 18:23 | -9.80921 | -36.05966 | 35335 ft | 443 kts | 223° |
| 2026-05-04 18:24 | -9.83208 | -36.08058 | 35607 ft | 443 kts | 223° |
| 2026-05-04 18:24 | -9.85492 | -36.10145 | 35873 ft | 442 kts | 223° |
| 2026-05-04 18:24 | -9.87776 | -36.12233 | 35982 ft | 442 kts | 223° |
| 2026-05-04 18:24 | -9.90061 | -36.14323 | 35994 ft | 441 kts | 223° |
| 2026-05-04 18:25 | -9.94587 | -36.18460 | 35997 ft | 441 kts | 223° |
| 2026-05-04 18:25 | -9.99146 | -36.22624 | 35997 ft | 441 kts | 223° |
| 2026-05-04 18:26 | -10.03706 | -36.26785 | 35995 ft | 441 kts | 223° |
| 2026-05-04 18:26 | -10.08261 | -36.30941 | 35999 ft | 441 kts | 223° |
| 2026-05-04 18:27 | -10.12820 | -36.35108 | 36003 ft | 441 kts | 223° |
| 2026-05-04 18:27 | -10.17372 | -36.39287 | 36006 ft | 441 kts | 223° |
| 2026-05-04 18:28 | -10.21930 | -36.43471 | 36008 ft | 442 kts | 223° |
| 2026-05-04 18:28 | -10.26496 | -36.47647 | 36013 ft | 442 kts | 223° |
| 2026-05-04 18:29 | -10.31064 | -36.51825 | 36014 ft | 442 kts | 223° |
| 2026-05-04 18:29 | -10.35634 | -36.56011 | 36016 ft | 442 kts | 223° |
| 2026-05-04 18:30 | -10.42446 | -36.62271 | 36016 ft | 442 kts | 223° |
| 2026-05-04 18:31 | -10.47014 | -36.66468 | 36017 ft | 442 kts | 223° |
| 2026-05-04 18:31 | -10.51581 | -36.70657 | 36016 ft | 443 kts | 223° |
| 2026-05-04 18:32 | -10.56152 | -36.74850 | 36015 ft | 443 kts | 223° |
| 2026-05-04 18:32 | -10.60720 | -36.79045 | 36021 ft | 442 kts | 223° |
| 2026-05-04 18:33 | -10.65286 | -36.83244 | 36022 ft | 442 kts | 223° |
| 2026-05-04 18:33 | -10.69848 | -36.87438 | 36022 ft | 442 kts | 222° |
| 2026-05-04 18:34 | -10.74411 | -36.91633 | 36019 ft | 442 kts | 223° |
| 2026-05-04 18:34 | -10.78972 | -36.95838 | 36021 ft | 442 kts | 223° |
| 2026-05-04 18:35 | -10.83526 | -37.00039 | 36022 ft | 442 kts | 222° |
| 2026-05-04 18:35 | -10.88061 | -37.04211 | 36023 ft | 442 kts | 222° |
| 2026-05-04 18:36 | -10.92621 | -37.08412 | 36024 ft | 442 kts | 222° |
| 2026-05-04 18:36 | -10.97177 | -37.12621 | 36023 ft | 442 kts | 222° |
| 2026-05-04 18:37 | -11.01732 | -37.16821 | 36021 ft | 442 kts | 222° |
| 2026-05-04 18:37 | -11.06287 | -37.21019 | 36022 ft | 442 kts | 222° |
| 2026-05-04 18:38 | -11.10846 | -37.25225 | 36028 ft | 442 kts | 222° |
| 2026-05-04 18:38 | -11.15395 | -37.29432 | 36028 ft | 442 kts | 222° |
| 2026-05-04 18:39 | -11.19945 | -37.33641 | 36028 ft | 442 kts | 223° |
| 2026-05-04 18:39 | -11.24490 | -37.37850 | 36030 ft | 442 kts | 223° |
| 2026-05-04 18:40 | -11.29014 | -37.42032 | 36033 ft | 442 kts | 222° |
| 2026-05-04 18:40 | -11.33579 | -37.46242 | 36033 ft | 442 kts | 222° |
| 2026-05-04 18:41 | -11.38133 | -37.50446 | 36033 ft | 442 kts | 223° |
| 2026-05-04 18:41 | -11.42680 | -37.54658 | 36033 ft | 442 kts | 223° |
| 2026-05-04 18:42 | -11.47220 | -37.58876 | 36037 ft | 442 kts | 223° |
| 2026-05-04 18:42 | -11.51761 | -37.63096 | 36038 ft | 442 kts | 223° |
| 2026-05-04 18:43 | -11.56308 | -37.67316 | 36037 ft | 442 kts | 223° |
| 2026-05-04 18:43 | -11.60856 | -37.71527 | 36042 ft | 442 kts | 223° |
| 2026-05-04 18:44 | -11.65403 | -37.75743 | 36043 ft | 442 kts | 223° |
| 2026-05-04 18:44 | -11.69943 | -37.79960 | 36045 ft | 441 kts | 223° |
| 2026-05-04 18:45 | -11.74456 | -37.84159 | 36043 ft | 441 kts | 223° |
| 2026-05-04 18:45 | -11.78997 | -37.88374 | 36044 ft | 441 kts | 223° |
| 2026-05-04 18:46 | -11.83541 | -37.92596 | 36044 ft | 441 kts | 223° |
| 2026-05-04 18:46 | -11.88080 | -37.96817 | 36048 ft | 441 kts | 223° |
| 2026-05-04 18:47 | -11.92613 | -38.01038 | 36045 ft | 441 kts | 223° |
| 2026-05-04 18:47 | -11.97136 | -38.05264 | 36046 ft | 441 kts | 223° |
| 2026-05-04 18:48 | -12.01659 | -38.09489 | 36048 ft | 441 kts | 223° |
| 2026-05-04 18:48 | -12.06188 | -38.13708 | 36047 ft | 440 kts | 223° |
| 2026-05-04 18:49 | -12.10720 | -38.17919 | 36042 ft | 440 kts | 223° |
| 2026-05-04 18:49 | -12.15243 | -38.22140 | 36043 ft | 440 kts | 223° |
| 2026-05-04 18:50 | -12.19769 | -38.26362 | 36044 ft | 440 kts | 223° |
| 2026-05-04 18:50 | -12.24293 | -38.30578 | 36044 ft | 440 kts | 223° |
| 2026-05-04 18:51 | -12.28780 | -38.34774 | 36045 ft | 440 kts | 223° |
| 2026-05-04 18:51 | -12.33289 | -38.39009 | 36043 ft | 440 kts | 223° |
| 2026-05-04 18:52 | -12.37807 | -38.43234 | 36045 ft | 440 kts | 223° |
| 2026-05-04 18:52 | -12.42326 | -38.47451 | 36048 ft | 440 kts | 223° |
| 2026-05-04 18:53 | -12.46839 | -38.51666 | 36047 ft | 439 kts | 223° |
| 2026-05-04 18:53 | -12.51347 | -38.55890 | 36047 ft | 439 kts | 223° |
| 2026-05-04 18:54 | -12.55853 | -38.60123 | 36047 ft | 439 kts | 223° |
| 2026-05-04 18:54 | -12.60358 | -38.64347 | 36050 ft | 439 kts | 223° |
| 2026-05-04 18:55 | -12.64863 | -38.68572 | 36054 ft | 439 kts | 223° |
| 2026-05-04 18:55 | -12.71608 | -38.74905 | 36054 ft | 438 kts | 223° |
| 2026-05-04 18:56 | -12.76104 | -38.79134 | 36054 ft | 438 kts | 223° |
| 2026-05-04 18:56 | -12.80592 | -38.83355 | 36053 ft | 438 kts | 223° |
| 2026-05-04 18:57 | -12.85060 | -38.87547 | 36053 ft | 438 kts | 223° |
| 2026-05-04 18:57 | -12.89851 | -38.91403 | 36054 ft | 438 kts | 217° |
| 2026-05-04 18:58 | -12.94796 | -38.95065 | 36055 ft | 438 kts | 217° |
| 2026-05-04 18:58 | -12.99733 | -38.98718 | 36053 ft | 438 kts | 217° |
| 2026-05-04 18:59 | -13.04666 | -39.02371 | 36050 ft | 437 kts | 217° |
| 2026-05-04 18:59 | -13.09597 | -39.06028 | 36048 ft | 437 kts | 217° |
| 2026-05-04 19:00 | -13.14517 | -39.09680 | 36056 ft | 437 kts | 217° |
| 2026-05-04 19:00 | -13.19435 | -39.13336 | 36054 ft | 436 kts | 217° |
| 2026-05-04 19:01 | -13.24353 | -39.16989 | 36053 ft | 436 kts | 217° |
| 2026-05-04 19:01 | -13.29233 | -39.20614 | 36052 ft | 436 kts | 217° |
| 2026-05-04 19:02 | -13.34141 | -39.24263 | 36050 ft | 436 kts | 217° |
| 2026-05-04 19:02 | -13.39050 | -39.27918 | 36059 ft | 435 kts | 217° |
| 2026-05-04 19:03 | -13.43954 | -39.31571 | 36059 ft | 435 kts | 217° |
| 2026-05-04 19:03 | -13.48028 | -39.34604 | 36057 ft | 435 kts | 217° |
| 2026-05-04 19:04 | -13.52914 | -39.38261 | 36058 ft | 434 kts | 217° |
| 2026-05-04 19:04 | -13.57788 | -39.41919 | 36059 ft | 434 kts | 217° |
| 2026-05-04 19:05 | -13.62659 | -39.45573 | 36065 ft | 433 kts | 217° |
| 2026-05-04 19:05 | -13.67528 | -39.49220 | 36069 ft | 433 kts | 217° |
| 2026-05-04 19:06 | -13.72399 | -39.52870 | 36065 ft | 433 kts | 218° |
| 2026-05-04 19:06 | -13.77254 | -39.56528 | 36059 ft | 432 kts | 217° |
| 2026-05-04 19:07 | -13.82084 | -39.60160 | 36068 ft | 432 kts | 217° |
| 2026-05-04 19:07 | -13.86942 | -39.63803 | 36071 ft | 432 kts | 218° |
| 2026-05-04 19:08 | -13.91794 | -39.67452 | 36067 ft | 431 kts | 218° |
| 2026-05-04 19:08 | -13.96637 | -39.71098 | 36065 ft | 431 kts | 218° |
| 2026-05-04 19:09 | -14.01473 | -39.74743 | 36067 ft | 431 kts | 218° |
| 2026-05-04 19:09 | -14.06307 | -39.78385 | 36062 ft | 430 kts | 218° |
| 2026-05-04 19:10 | -14.11143 | -39.82023 | 36071 ft | 430 kts | 218° |
| 2026-05-04 19:10 | -14.15970 | -39.85657 | 36079 ft | 429 kts | 218° |
| 2026-05-04 19:11 | -14.20765 | -39.89270 | 36079 ft | 429 kts | 218° |
| 2026-05-04 19:11 | -14.25582 | -39.92909 | 36086 ft | 429 kts | 218° |
| 2026-05-04 19:12 | -14.32808 | -39.98372 | 36091 ft | 429 kts | 218° |
| 2026-05-04 19:13 | -14.37624 | -40.02009 | 36100 ft | 428 kts | 218° |
| 2026-05-04 19:13 | -14.42428 | -40.05635 | 36100 ft | 428 kts | 218° |
| 2026-05-04 19:14 | -14.47225 | -40.09261 | 36102 ft | 428 kts | 218° |
| 2026-05-04 19:14 | -14.52026 | -40.12895 | 36114 ft | 428 kts | 218° |
| 2026-05-04 19:15 | -14.56821 | -40.16533 | 36111 ft | 427 kts | 218° |
| 2026-05-04 19:15 | -14.61610 | -40.20172 | 36122 ft | 428 kts | 218° |
| 2026-05-04 19:16 | -14.66409 | -40.23811 | 36124 ft | 428 kts | 218° |
| 2026-05-04 19:16 | -14.71210 | -40.27445 | 36133 ft | 427 kts | 218° |
| 2026-05-04 19:17 | -14.75998 | -40.31078 | 36137 ft | 427 kts | 218° |
| 2026-05-04 19:17 | -14.80788 | -40.34718 | 36143 ft | 427 kts | 219° |
| 2026-05-04 19:18 | -14.85540 | -40.38330 | 36142 ft | 426 kts | 219° |
| 2026-05-04 19:18 | -14.90310 | -40.41967 | 36143 ft | 426 kts | 219° |
| 2026-05-04 19:19 | -14.95091 | -40.45598 | 36143 ft | 426 kts | 218° |
| 2026-05-04 19:19 | -14.99876 | -40.49237 | 36141 ft | 426 kts | 219° |
| 2026-05-04 19:20 | -15.04647 | -40.52875 | 36156 ft | 426 kts | 219° |
| 2026-05-04 19:20 | -15.09413 | -40.56513 | 36150 ft | 425 kts | 219° |
| 2026-05-04 19:21 | -15.14174 | -40.60149 | 36143 ft | 425 kts | 219° |
| 2026-05-04 19:21 | -15.18906 | -40.63761 | 36139 ft | 425 kts | 219° |
| 2026-05-04 19:22 | -15.23700 | -40.67419 | 36148 ft | 425 kts | 219° |
| 2026-05-04 19:22 | -15.28470 | -40.71060 | 36151 ft | 426 kts | 219° |
| 2026-05-04 19:23 | -15.33234 | -40.74700 | 36148 ft | 426 kts | 219° |
| 2026-05-04 19:23 | -15.37968 | -40.78322 | 36152 ft | 426 kts | 219° |
| 2026-05-04 19:24 | -15.42738 | -40.81963 | 36154 ft | 426 kts | 219° |
| 2026-05-04 19:24 | -15.47501 | -40.85605 | 36153 ft | 426 kts | 219° |
| 2026-05-04 19:25 | -15.52259 | -40.89260 | 36159 ft | 426 kts | 219° |
| 2026-05-04 19:25 | -15.57020 | -40.92917 | 36153 ft | 426 kts | 219° |
| 2026-05-04 19:26 | -15.61784 | -40.96570 | 36159 ft | 426 kts | 219° |
| 2026-05-04 19:26 | -15.66544 | -41.00227 | 36162 ft | 426 kts | 219° |
| 2026-05-04 19:27 | -15.71305 | -41.03883 | 36162 ft | 425 kts | 219° |
| 2026-05-04 19:27 | -15.76063 | -41.07537 | 36173 ft | 425 kts | 219° |
| 2026-05-04 19:28 | -15.80818 | -41.11196 | 36168 ft | 425 kts | 219° |
| 2026-05-04 19:28 | -15.85536 | -41.14825 | 36164 ft | 425 kts | 219° |
| 2026-05-04 19:29 | -15.90281 | -41.18480 | 36166 ft | 425 kts | 219° |
| 2026-05-04 19:29 | -15.95034 | -41.22139 | 36161 ft | 424 kts | 219° |
| 2026-05-04 19:30 | -15.99783 | -41.25794 | 36164 ft | 425 kts | 219° |
| 2026-05-04 19:30 | -16.04530 | -41.29450 | 36166 ft | 425 kts | 219° |
| 2026-05-04 19:31 | -16.09279 | -41.33112 | 36168 ft | 425 kts | 219° |
| 2026-05-04 19:31 | -16.13990 | -41.36756 | 36164 ft | 425 kts | 219° |
| 2026-05-04 19:32 | -16.18731 | -41.40423 | 36186 ft | 425 kts | 219° |
| 2026-05-04 19:32 | -16.23472 | -41.44092 | 36173 ft | 425 kts | 219° |
| 2026-05-04 19:33 | -16.28218 | -41.47756 | 36172 ft | 424 kts | 219° |
| 2026-05-04 19:33 | -16.32962 | -41.51418 | 36166 ft | 424 kts | 219° |
| 2026-05-04 19:34 | -16.37708 | -41.55093 | 36165 ft | 425 kts | 219° |
| 2026-05-04 19:34 | -16.42411 | -41.58746 | 36175 ft | 424 kts | 220° |
| 2026-05-04 19:35 | -16.47144 | -41.62415 | 36169 ft | 423 kts | 220° |
| 2026-05-04 19:35 | -16.51872 | -41.66077 | 36170 ft | 423 kts | 220° |
| 2026-05-04 19:36 | -16.56596 | -41.69744 | 36165 ft | 423 kts | 220° |
| 2026-05-04 19:36 | -16.61310 | -41.73412 | 36163 ft | 423 kts | 220° |
| 2026-05-04 19:37 | -16.66026 | -41.77084 | 36174 ft | 423 kts | 220° |
| 2026-05-04 19:37 | -16.70740 | -41.80749 | 36166 ft | 422 kts | 220° |
| 2026-05-04 19:38 | -16.75453 | -41.84414 | 36165 ft | 422 kts | 220° |
| 2026-05-04 19:38 | -16.79968 | -41.87928 | 36165 ft | 422 kts | 220° |
| 2026-05-04 19:39 | -16.83320 | -41.90537 | 36165 ft | 422 kts | 220° |
| 2026-05-04 19:39 | -16.88015 | -41.94203 | 36165 ft | 422 kts | 220° |
| 2026-05-04 19:40 | -16.92685 | -41.97851 | 36163 ft | 422 kts | 220° |
| 2026-05-04 19:40 | -16.97384 | -42.01512 | 36166 ft | 421 kts | 220° |
| 2026-05-04 19:41 | -17.02081 | -42.05179 | 36158 ft | 421 kts | 220° |
| 2026-05-04 19:41 | -17.06767 | -42.08855 | 36179 ft | 421 kts | 220° |
| 2026-05-04 19:42 | -17.11452 | -42.12525 | 36169 ft | 421 kts | 220° |
| 2026-05-04 19:42 | -17.16139 | -42.16188 | 36174 ft | 421 kts | 220° |
| 2026-05-04 19:43 | -17.20821 | -42.19851 | 36163 ft | 420 kts | 220° |
| 2026-05-04 19:43 | -17.25499 | -42.23518 | 36169 ft | 420 kts | 220° |
| 2026-05-04 19:44 | -17.30172 | -42.27183 | 36180 ft | 420 kts | 220° |
| 2026-05-04 19:44 | -17.34839 | -42.30853 | 36181 ft | 419 kts | 220° |
| 2026-05-04 19:45 | -17.39491 | -42.34510 | 36179 ft | 418 kts | 220° |
| 2026-05-04 19:45 | -17.44149 | -42.38166 | 36177 ft | 418 kts | 220° |
| 2026-05-04 19:46 | -17.48776 | -42.41800 | 36187 ft | 418 kts | 220° |
| 2026-05-04 19:46 | -17.53430 | -42.45461 | 36179 ft | 418 kts | 220° |
| 2026-05-04 19:47 | -17.58071 | -42.49131 | 36181 ft | 418 kts | 220° |
| 2026-05-04 19:47 | -17.62716 | -42.52792 | 36179 ft | 417 kts | 220° |
| 2026-05-04 19:48 | -17.67357 | -42.56448 | 36180 ft | 417 kts | 220° |
| 2026-05-04 19:48 | -17.71997 | -42.60109 | 36192 ft | 417 kts | 221° |
| 2026-05-04 19:49 | -17.76634 | -42.63767 | 36174 ft | 417 kts | 221° |
| 2026-05-04 19:49 | -17.81240 | -42.67402 | 36174 ft | 416 kts | 221° |
| 2026-05-04 19:50 | -17.85862 | -42.71060 | 36173 ft | 416 kts | 221° |
| 2026-05-04 19:50 | -17.90489 | -42.74726 | 36177 ft | 417 kts | 221° |
| 2026-05-04 19:51 | -17.95120 | -42.78388 | 36187 ft | 416 kts | 221° |
| 2026-05-04 19:51 | -17.99736 | -42.82042 | 36174 ft | 415 kts | 221° |
| 2026-05-04 19:52 | -18.04348 | -42.85695 | 36181 ft | 415 kts | 221° |
| 2026-05-04 19:52 | -18.08952 | -42.89352 | 36173 ft | 415 kts | 221° |
| 2026-05-04 19:53 | -18.12769 | -42.92393 | 36199 ft | 415 kts | 221° |
| 2026-05-04 19:53 | -18.17367 | -42.96050 | 36184 ft | 414 kts | 221° |
| 2026-05-04 19:54 | -18.21959 | -42.99694 | 36177 ft | 413 kts | 221° |
| 2026-05-04 19:54 | -18.26548 | -43.03343 | 36172 ft | 413 kts | 221° |
| 2026-05-04 19:55 | -18.31129 | -43.06992 | 36170 ft | 413 kts | 221° |
| 2026-05-04 19:55 | -18.35714 | -43.10641 | 36176 ft | 413 kts | 221° |
| 2026-05-04 19:56 | -18.40290 | -43.14291 | 36171 ft | 413 kts | 221° |
| 2026-05-04 19:56 | -18.44854 | -43.17977 | 36165 ft | 412 kts | 221° |
| 2026-05-04 19:57 | -18.49361 | -43.21642 | 36165 ft | 412 kts | 221° |
| 2026-05-04 19:57 | -18.53908 | -43.25329 | 36186 ft | 412 kts | 222° |
| 2026-05-04 19:58 | -18.58454 | -43.29014 | 36176 ft | 412 kts | 222° |
| 2026-05-04 19:58 | -18.62994 | -43.32701 | 36171 ft | 412 kts | 222° |
| 2026-05-04 19:59 | -18.67561 | -43.36361 | 36167 ft | 412 kts | 221° |
| 2026-05-04 19:59 | -18.72158 | -43.39983 | 36162 ft | 412 kts | 221° |
| 2026-05-04 20:00 | -18.76713 | -43.43594 | 36168 ft | 412 kts | 221° |
| 2026-05-04 20:00 | -18.81275 | -43.47240 | 36170 ft | 411 kts | 221° |
| 2026-05-04 20:01 | -18.85846 | -43.50878 | 36171 ft | 411 kts | 221° |
| 2026-05-04 20:01 | -18.90432 | -43.54503 | 36165 ft | 411 kts | 221° |
| 2026-05-04 20:02 | -18.95065 | -43.58053 | 36165 ft | 412 kts | 220° |
| 2026-05-04 20:02 | -18.99719 | -43.61591 | 36161 ft | 411 kts | 220° |
| 2026-05-04 20:03 | -19.04360 | -43.65140 | 36159 ft | 412 kts | 220° |
| 2026-05-04 20:03 | -19.08993 | -43.68696 | 36160 ft | 411 kts | 220° |
| 2026-05-04 20:04 | -19.13623 | -43.72262 | 36178 ft | 411 kts | 220° |
| 2026-05-04 20:04 | -19.18220 | -43.75804 | 36168 ft | 411 kts | 220° |
| 2026-05-04 20:05 | -19.22845 | -43.79368 | 36166 ft | 411 kts | 220° |
| 2026-05-04 20:05 | -19.27459 | -43.82930 | 36160 ft | 411 kts | 221° |
| 2026-05-04 20:06 | -19.32079 | -43.86496 | 36168 ft | 411 kts | 220° |
| 2026-05-04 20:06 | -19.36694 | -43.90060 | 36207 ft | 410 kts | 221° |
| 2026-05-04 20:07 | -19.41306 | -43.93620 | 36223 ft | 410 kts | 221° |
| 2026-05-04 20:07 | -19.45911 | -43.97174 | 36240 ft | 410 kts | 221° |
| 2026-05-04 20:08 | -19.50517 | -44.00736 | 36253 ft | 409 kts | 221° |
| 2026-05-04 20:08 | -19.55122 | -44.04304 | 36277 ft | 409 kts | 221° |
| 2026-05-04 20:09 | -19.59693 | -44.07833 | 36158 ft | 408 kts | 221° |
| 2026-05-04 20:09 | -19.64302 | -44.11362 | 36157 ft | 408 kts | 220° |
| 2026-05-04 20:10 | -19.68903 | -44.14896 | 36169 ft | 408 kts | 220° |
| 2026-05-04 20:10 | -19.73496 | -44.18428 | 36172 ft | 408 kts | 221° |
| 2026-05-04 20:11 | -19.78058 | -44.21944 | 36175 ft | 408 kts | 221° |
| 2026-05-04 20:11 | -19.82642 | -44.25498 | 36164 ft | 407 kts | 221° |
| 2026-05-04 20:12 | -19.87218 | -44.29052 | 36167 ft | 407 kts | 221° |
| 2026-05-04 20:12 | -19.91797 | -44.32600 | 36164 ft | 407 kts | 221° |
| 2026-05-04 20:13 | -19.96378 | -44.36151 | 36185 ft | 407 kts | 221° |
| 2026-05-04 20:13 | -20.00953 | -44.39698 | 36173 ft | 407 kts | 221° |
| 2026-05-04 20:14 | -20.05528 | -44.43246 | 36163 ft | 407 kts | 221° |
| 2026-05-04 20:14 | -20.10096 | -44.46801 | 36159 ft | 407 kts | 221° |
| 2026-05-04 20:15 | -20.14664 | -44.50352 | 36179 ft | 406 kts | 221° |
| 2026-05-04 20:15 | -20.19199 | -44.53876 | 36177 ft | 406 kts | 221° |
| 2026-05-04 20:16 | -20.23754 | -44.57424 | 36176 ft | 405 kts | 221° |
| 2026-05-04 20:16 | -20.28299 | -44.60968 | 36172 ft | 405 kts | 221° |
| 2026-05-04 20:17 | -20.32845 | -44.64510 | 36184 ft | 405 kts | 221° |
| 2026-05-04 20:17 | -20.37384 | -44.68050 | 36176 ft | 404 kts | 221° |
| 2026-05-04 20:18 | -20.41932 | -44.71595 | 36169 ft | 404 kts | 221° |
| 2026-05-04 20:18 | -20.46474 | -44.75135 | 36171 ft | 404 kts | 221° |
| 2026-05-04 20:19 | -20.51013 | -44.78681 | 36184 ft | 404 kts | 221° |
| 2026-05-04 20:19 | -20.55523 | -44.82208 | 36172 ft | 404 kts | 221° |
| 2026-05-04 20:20 | -20.60061 | -44.85753 | 36155 ft | 404 kts | 221° |
| 2026-05-04 20:20 | -20.64600 | -44.89300 | 36155 ft | 404 kts | 221° |
| 2026-05-04 20:21 | -20.69131 | -44.92853 | 36163 ft | 404 kts | 221° |
| 2026-05-04 20:21 | -20.75935 | -44.98178 | 36166 ft | 404 kts | 221° |
| 2026-05-04 20:22 | -20.80464 | -45.01729 | 36161 ft | 404 kts | 221° |
| 2026-05-04 20:22 | -20.84988 | -45.05300 | 36165 ft | 404 kts | 221° |
| 2026-05-04 20:23 | -20.89482 | -45.08845 | 36156 ft | 404 kts | 221° |
| 2026-05-04 20:23 | -20.94007 | -45.12409 | 36158 ft | 404 kts | 221° |
| 2026-05-04 20:24 | -20.98537 | -45.15973 | 36153 ft | 404 kts | 221° |
| 2026-05-04 20:24 | -21.03060 | -45.19541 | 36148 ft | 404 kts | 221° |
| 2026-05-04 20:25 | -21.07583 | -45.23107 | 36144 ft | 404 kts | 221° |
| 2026-05-04 20:25 | -21.12103 | -45.26676 | 36139 ft | 404 kts | 221° |
| 2026-05-04 20:26 | -21.16625 | -45.30246 | 36144 ft | 403 kts | 221° |
| 2026-05-04 20:26 | -21.21148 | -45.33810 | 36138 ft | 404 kts | 221° |
| 2026-05-04 20:27 | -21.25664 | -45.37388 | 36141 ft | 404 kts | 221° |
| 2026-05-04 20:27 | -21.30161 | -45.40953 | 36149 ft | 404 kts | 221° |
| 2026-05-04 20:28 | -21.34678 | -45.44538 | 36149 ft | 404 kts | 221° |
| 2026-05-04 20:28 | -21.39192 | -45.48123 | 36153 ft | 404 kts | 221° |
| 2026-05-04 20:29 | -21.43710 | -45.51712 | 36150 ft | 403 kts | 221° |
| 2026-05-04 20:29 | -21.48224 | -45.55292 | 36147 ft | 403 kts | 221° |
| 2026-05-04 20:30 | -21.52738 | -45.58868 | 36147 ft | 403 kts | 221° |
| 2026-05-04 20:30 | -21.57274 | -45.62431 | 36145 ft | 404 kts | 220° |
| 2026-05-04 20:31 | -21.61812 | -45.65983 | 36164 ft | 403 kts | 221° |
| 2026-05-04 20:31 | -21.66307 | -45.69516 | 36127 ft | 403 kts | 221° |
| 2026-05-04 20:32 | -21.68572 | -45.71294 | 35875 ft | 403 kts | 220° |
| 2026-05-04 20:32 | -21.70837 | -45.73069 | 35634 ft | 403 kts | 220° |
| 2026-05-04 20:32 | -21.73106 | -45.74850 | 35398 ft | 404 kts | 221° |
| 2026-05-04 20:32 | -21.75376 | -45.76639 | 35157 ft | 405 kts | 221° |
| 2026-05-04 20:33 | -21.77652 | -45.78432 | 34920 ft | 406 kts | 220° |
| 2026-05-04 20:33 | -21.79933 | -45.80233 | 34300 ft | 408 kts | 220° |
| 2026-05-04 20:33 | -21.82235 | -45.82053 | 33433 ft | 412 kts | 220° |
| 2026-05-04 20:33 | -21.84548 | -45.83883 | 32736 ft | 412 kts | 220° |
| 2026-05-04 20:34 | -21.86843 | -45.85692 | 32300 ft | 406 kts | 220° |
| 2026-05-04 20:34 | -21.89109 | -45.87477 | 31790 ft | 401 kts | 220° |
| 2026-05-04 20:34 | -21.91350 | -45.89246 | 31312 ft | 397 kts | 220° |
| 2026-05-04 20:34 | -21.93568 | -45.90998 | 30796 ft | 394 kts | 220° |
| 2026-05-04 20:35 | -21.95767 | -45.92737 | 30313 ft | 390 kts | 220° |
| 2026-05-04 20:35 | -21.97917 | -45.94437 | 29774 ft | 386 kts | 220° |
| 2026-05-04 20:35 | -22.00065 | -45.96135 | 29289 ft | 381 kts | 220° |
| 2026-05-04 20:35 | -22.02190 | -45.97813 | 28806 ft | 376 kts | 219° |
| 2026-05-04 20:36 | -22.04288 | -45.99470 | 28338 ft | 372 kts | 219° |
| 2026-05-04 20:36 | -22.06362 | -46.01111 | 27868 ft | 369 kts | 219° |
| 2026-05-04 20:36 | -22.08424 | -46.02745 | 27411 ft | 366 kts | 219° |
| 2026-05-04 20:36 | -22.10472 | -46.04370 | 26953 ft | 365 kts | 219° |
| 2026-05-04 20:37 | -22.12510 | -46.05990 | 26510 ft | 364 kts | 219° |
| 2026-05-04 20:37 | -22.14546 | -46.07608 | 26058 ft | 362 kts | 219° |
| 2026-05-04 20:37 | -22.16576 | -46.09221 | 25582 ft | 363 kts | 219° |
| 2026-05-04 20:37 | -22.18610 | -46.10840 | 25120 ft | 363 kts | 219° |
| 2026-05-04 20:38 | -22.20620 | -46.12437 | 24672 ft | 364 kts | 219° |
| 2026-05-04 20:38 | -22.22660 | -46.14057 | 24226 ft | 364 kts | 219° |
| 2026-05-04 20:38 | -22.24698 | -46.15677 | 23767 ft | 364 kts | 219° |
| 2026-05-04 20:38 | -22.26739 | -46.17301 | 23266 ft | 363 kts | 219° |
| 2026-05-04 20:39 | -22.28768 | -46.18914 | 22806 ft | 361 kts | 219° |
| 2026-05-04 20:39 | -22.30866 | -46.20393 | 22366 ft | 361 kts | 211° |
| 2026-05-04 20:39 | -22.33195 | -46.21406 | 21904 ft | 363 kts | 199° |
| 2026-05-04 20:39 | -22.35702 | -46.21926 | 21465 ft | 370 kts | 192° |
| 2026-05-04 20:40 | -22.38251 | -46.22314 | 21018 ft | 370 kts | 192° |
| 2026-05-04 20:40 | -22.40795 | -46.22704 | 20570 ft | 368 kts | 192° |
| 2026-05-04 20:40 | -22.43324 | -46.23096 | 20124 ft | 366 kts | 192° |
| 2026-05-04 20:40 | -22.45846 | -46.23490 | 19682 ft | 365 kts | 192° |
| 2026-05-04 20:41 | -22.48349 | -46.23879 | 19245 ft | 363 kts | 192° |
| 2026-05-04 20:41 | -22.50845 | -46.24265 | 18816 ft | 361 kts | 192° |
| 2026-05-04 20:41 | -22.53297 | -46.24644 | 18368 ft | 359 kts | 192° |
| 2026-05-04 20:41 | -22.55759 | -46.25025 | 17979 ft | 354 kts | 192° |
| 2026-05-04 20:42 | -22.58196 | -46.25403 | 17827 ft | 355 kts | 192° |
| 2026-05-04 20:42 | -22.60645 | -46.25787 | 17622 ft | 354 kts | 192° |
| 2026-05-04 20:42 | -22.63083 | -46.26169 | 17423 ft | 354 kts | 192° |
| 2026-05-04 20:42 | -22.65517 | -46.26551 | 17217 ft | 353 kts | 192° |
| 2026-05-04 20:43 | -22.67942 | -46.26928 | 17014 ft | 352 kts | 192° |
| 2026-05-04 20:43 | -22.70363 | -46.27302 | 16814 ft | 350 kts | 192° |
| 2026-05-04 20:43 | -22.72777 | -46.27677 | 16618 ft | 350 kts | 191° |
| 2026-05-04 20:43 | -22.75110 | -46.28287 | 16369 ft | 342 kts | 206° |
| 2026-05-04 20:44 | -22.77126 | -46.29623 | 16121 ft | 338 kts | 221° |
| 2026-05-04 20:44 | -22.78977 | -46.31198 | 15885 ft | 339 kts | 216° |
| 2026-05-04 20:44 | -22.81015 | -46.32500 | 15642 ft | 340 kts | 210° |
| 2026-05-04 20:44 | -22.83131 | -46.33632 | 15399 ft | 340 kts | 207° |
| 2026-05-04 20:45 | -22.85269 | -46.34712 | 15159 ft | 338 kts | 207° |
| 2026-05-04 20:45 | -22.87396 | -46.35799 | 14924 ft | 337 kts | 207° |
| 2026-05-04 20:45 | -22.89475 | -46.36906 | 14697 ft | 336 kts | 208° |
| 2026-05-04 20:45 | -22.91555 | -46.38059 | 14466 ft | 335 kts | 209° |
| 2026-05-04 20:46 | -22.93609 | -46.39230 | 14234 ft | 333 kts | 209° |
| 2026-05-04 20:46 | -22.95646 | -46.40410 | 13956 ft | 329 kts | 209° |
| 2026-05-04 20:46 | -22.96979 | -46.41187 | 13639 ft | 328 kts | 210° |
| 2026-05-04 20:46 | -22.98986 | -46.42354 | 13174 ft | 326 kts | 209° |
| 2026-05-04 20:47 | -23.00983 | -46.43512 | 12714 ft | 325 kts | 210° |
| 2026-05-04 20:47 | -23.02974 | -46.44665 | 12257 ft | 324 kts | 209° |
| 2026-05-04 20:47 | -23.04961 | -46.45814 | 11800 ft | 323 kts | 210° |
| 2026-05-04 20:47 | -23.06943 | -46.46961 | 11345 ft | 323 kts | 210° |
| 2026-05-04 20:48 | -23.08928 | -46.48111 | 10892 ft | 323 kts | 210° |
| 2026-05-04 20:48 | -23.10911 | -46.49254 | 10472 ft | 322 kts | 210° |
| 2026-05-04 20:48 | -23.12856 | -46.50369 | 10348 ft | 310 kts | 210° |
| 2026-05-04 20:48 | -23.14731 | -46.51443 | 10188 ft | 300 kts | 210° |
| 2026-05-04 20:49 | -23.16555 | -46.52491 | 10092 ft | 295 kts | 210° |
| 2026-05-04 20:49 | -23.18340 | -46.53548 | 10020 ft | 286 kts | 213° |
| 2026-05-04 20:49 | -23.20010 | -46.54646 | 9958 ft | 275 kts | 215° |
| 2026-05-04 20:49 | -23.21572 | -46.55734 | 9924 ft | 266 kts | 216° |
| 2026-05-04 20:50 | -23.23133 | -46.56844 | 9865 ft | 269 kts | 216° |
| 2026-05-04 20:50 | -23.24712 | -46.57967 | 9790 ft | 279 kts | 216° |
| 2026-05-04 20:50 | -23.26375 | -46.59147 | 9664 ft | 289 kts | 216° |
| 2026-05-04 20:50 | -23.27660 | -46.60049 | 9569 ft | 286 kts | 215° |
| 2026-05-04 20:51 | -23.28758 | -46.60814 | 9482 ft | 280 kts | 215° |
| 2026-05-04 20:51 | -23.30379 | -46.61939 | 9353 ft | 272 kts | 215° |
| 2026-05-04 20:51 | -23.31971 | -46.63045 | 9117 ft | 269 kts | 215° |
| 2026-05-04 20:51 | -23.33524 | -46.64122 | 8997 ft | 261 kts | 215° |
| 2026-05-04 20:52 | -23.35043 | -46.65174 | 8744 ft | 258 kts | 216° |
| 2026-05-04 20:52 | -23.36560 | -46.66227 | 8334 ft | 258 kts | 216° |
| 2026-05-04 20:52 | -23.38065 | -46.67271 | 7877 ft | 254 kts | 216° |
| 2026-05-04 20:52 | -23.39514 | -46.68276 | 7523 ft | 246 kts | 216° |
| 2026-05-04 20:53 | -23.40936 | -46.69246 | 7187 ft | 238 kts | 211° |
| 2026-05-04 20:53 | -23.42527 | -46.69603 | 6861 ft | 237 kts | 172° |
| 2026-05-04 20:53 | -23.43953 | -46.68801 | 6520 ft | 233 kts | 135° |
| 2026-05-04 20:53 | -23.44969 | -46.67459 | 6163 ft | 227 kts | 124° |
| 2026-05-04 20:54 | -23.45821 | -46.66034 | 5827 ft | 222 kts | 121° |
| 2026-05-04 20:54 | -23.46625 | -46.64613 | 5450 ft | 221 kts | 121° |
| 2026-05-04 20:54 | -23.47243 | -46.63117 | 5103 ft | 212 kts | 101° |
| 2026-05-04 20:54 | -23.47305 | -46.61551 | 4819 ft | 205 kts | 79° |
| 2026-05-04 20:55 | -23.46942 | -46.60075 | 4552 ft | 199 kts | 72° |
| 2026-05-04 20:55 | -23.46556 | -46.58641 | 4304 ft | 196 kts | 72° |
| 2026-05-04 20:55 | -23.46183 | -46.57256 | 4053 ft | 188 kts | 73° |
| 2026-05-04 20:55 | -23.45844 | -46.55989 | 3836 ft | 163 kts | 71° |
| 2026-05-04 20:56 | -23.45538 | -46.54855 | 3633 ft | 151 kts | 73° |
| 2026-05-04 20:56 | -23.45250 | -46.53788 | 3452 ft | 145 kts | 73° |
| 2026-05-04 20:56 | -23.44969 | -46.52744 | 3264 ft | 143 kts | 73° |
| 2026-05-04 20:56 | -23.44685 | -46.51691 | 3073 ft | 146 kts | 73° |
| 2026-05-04 20:57 | -23.44396 | -46.50622 | 2876 ft | 148 kts | 73° |
| 2026-05-04 20:57 | -23.44112 | -46.49539 | 2671 ft | 149 kts | 72° |
| 2026-05-04 20:57 | -23.43814 | -46.48449 | 2484 ft | 150 kts | 72° |
| 2026-05-04 20:57 | -23.43555 | -46.47507 | 2472 ft | 106 kts | 74° |
| 2026-05-04 20:58 | -23.43398 | -46.46915 | 2474 ft | 57 kts | 74° |
| 2026-05-04 20:58 | -23.43317 | -46.46613 | 2469 ft | 38 kts | 73° |
| 2026-05-04 20:58 | -23.43260 | -46.46431 | 2471 ft | 15 kts | 59° |
| 2026-05-04 20:58 | -23.43191 | -46.46339 | 2472 ft | 17 kts | 47° |
| 2026-05-04 20:59 | -23.43102 | -46.46242 | 2469 ft | 20 kts | 43° |
| 2026-05-04 20:59 | -23.42993 | -46.46139 | 2472 ft | 22 kts | 26° |
| 2026-05-04 20:59 | -23.42849 | -46.46164 | 2470 ft | 21 kts | 348° |
| 2026-05-04 20:59 | -23.42729 | -46.46207 | 2470 ft | 9 kts | 346° |
| 2026-05-04 21:00 | -23.42656 | -46.46229 | 2471 ft | 12 kts | 342° |
| 2026-05-04 21:00 | -23.42620 | -46.46296 | 2468 ft | 12 kts | 259° |
| 2026-05-04 21:00 | -23.42644 | -46.46389 | 2470 ft | 13 kts | 253° |
| 2026-05-04 21:00 | -23.42671 | -46.46490 | 2470 ft | 15 kts | 254° |
| 2026-05-04 21:01 | -23.42699 | -46.46601 | 2470 ft | 16 kts | 255° |
| 2026-05-04 21:01 | -23.42727 | -46.46720 | 2470 ft | 17 kts | 255° |
| 2026-05-04 21:01 | -23.42762 | -46.46846 | 2469 ft | 18 kts | 254° |
| 2026-05-04 21:01 | -23.42799 | -46.46979 | 2470 ft | 19 kts | 254° |
| 2026-05-04 21:02 | -23.42838 | -46.47116 | 2471 ft | 16 kts | 255° |
| 2026-05-04 21:02 | -23.42873 | -46.47236 | 2470 ft | 17 kts | 251° |
| 2026-05-04 21:02 | -23.42907 | -46.47363 | 2468 ft | 18 kts | 254° |
| 2026-05-04 21:02 | -23.42939 | -46.47500 | 2474 ft | 19 kts | 249° |
| 2026-05-04 21:03 | -23.42982 | -46.47638 | 2473 ft | 20 kts | 255° |
| 2026-05-04 21:03 | -23.43013 | -46.47758 | 2470 ft | 16 kts | 252° |
| 2026-05-04 21:03 | -23.43047 | -46.47881 | 2470 ft | 17 kts | 253° |
| 2026-05-04 21:03 | -23.43072 | -46.47975 | 2473 ft | 13 kts | 253° |
| 2026-05-04 21:04 | -23.43100 | -46.48072 | 2470 ft | 14 kts | 253° |
| 2026-05-04 21:04 | -23.43078 | -46.48127 | 2469 ft | 9 kts | 353° |
| 2026-05-04 21:04 | -23.43035 | -46.48129 | 2468 ft | 6 kts | 358° |
| 2026-05-04 21:04 | -23.42989 | -46.48132 | 2473 ft | 7 kts | 354° |
| 2026-05-04 21:05 | -23.42938 | -46.48138 | 2469 ft | 8 kts | 353° |
| 2026-05-04 21:05 | -23.42884 | -46.48146 | 2470 ft | 8 kts | 354° |
| 2026-05-04 21:05 | -23.42826 | -46.48150 | 2469 ft | 8 kts | 356° |
| 2026-05-04 21:05 | -23.42799 | -46.48171 | 2470 ft | 5 kts | 281° |
| 2026-05-04 21:06 | -23.42805 | -46.48209 | 2468 ft | 6 kts | 261° |
| 2026-05-04 21:06 | -23.42807 | -46.48231 | 2468 ft | 2 kts | 264° |
| 2026-05-04 21:06 | -23.42808 | -46.48244 | 2468 ft | 1 kts | 265° |
| 2026-05-04 21:06 | -23.42809 | -46.48247 | 2474 ft | 0 kts | 265° |